Time;durP1;ratioP1;P1;durP2;ratioP2;P2;SDS_P1;SDS_P2;PMS_P1;PMS_P2;Temp;Humidity;BMP_temperature;BMP_pressure;BME280_temperature;BME280_humidity;BME280_pressure;Samples;Min_cycle;Max_cycle;Signal;HPM_P1;HPM_P2
2024/01/07 05:21:19;;;;;;;3.72;2.58;;;;;;;-8.04;79.61;100029.00;5031561;28;20048;-61
2024/01/07 05:23:50;;;;;;;3.83;2.72;;;;;;;-8.05;79.57;100035.75;5033504;28;20143;-60
2024/01/07 05:26:20;;;;;;;3.67;2.30;;;;;;;-8.06;79.89;100030.63;5042710;28;20066;-61
2024/01/07 05:28:51;;;;;;;3.60;2.35;;;;;;;-8.13;79.72;100033.59;5032133;28;20155;-61
2024/01/07 05:31:21;;;;;;;3.38;2.78;;;;;;;-8.16;79.22;100043.56;5040258;28;20090;-60
2024/01/07 05:33:52;;;;;;;3.30;2.63;;;;;;;-8.22;79.03;100039.03;5030884;28;20068;-59
2024/01/07 05:36:24;;;;;;;4.07;2.78;;;;;;;-8.23;79.58;100036.44;5039838;28;20098;-62
2024/01/07 05:38:55;;;;;;;4.35;2.42;;;;;;;-8.28;79.59;100037.03;5031885;28;20354;-61
2024/01/07 05:41:25;;;;;;;2.42;2.22;;;;;;;-8.35;79.88;100034.94;5041956;28;20475;-61
2024/01/07 05:43:55;;;;;;;3.22;2.28;;;;;;;-8.42;79.66;100040.50;5031686;28;20106;-61
2024/01/07 05:46:26;;;;;;;7.10;3.55;;;;;;;-8.47;78.69;100052.91;5040557;28;20052;-61
2024/01/07 05:48:56;;;;;;;8.40;3.50;;;;;;;-8.60;79.11;100029.34;5030681;28;20269;-62
2024/01/07 05:51:28;;;;;;;2.38;2.15;;;;;;;-8.53;79.72;100047.50;5041051;28;20106;-60
2024/01/07 05:53:59;;;;;;;5.20;2.67;;;;;;;-8.52;80.57;100045.84;5028897;28;20064;-61
2024/01/07 05:56:29;;;;;;;2.97;2.63;;;;;;;-8.55;80.24;100038.94;5042199;28;20488;-62
2024/01/07 05:59:00;;;;;;;5.45;2.85;;;;;;;-8.56;81.18;100051.53;5031320;28;20059;-60
2024/01/07 06:01:30;;;;;;;3.60;2.55;;;;;;;-8.62;80.92;100049.53;5041732;28;20502;-60
2024/01/07 06:04:01;;;;;;;2.95;2.60;;;;;;;-8.66;81.04;100050.16;5030535;28;20059;-60
2024/01/07 06:06:33;;;;;;;3.90;2.38;;;;;;;-8.71;80.83;100044.81;5041448;28;20145;-60
2024/01/07 06:09:05;;;;;;;2.67;2.47;;;;;;;-8.71;81.07;100047.34;5031710;28;20058;-60
2024/01/07 06:11:35;;;;;;;2.47;2.28;;;;;;;-8.74;81.07;100047.16;5041690;28;20060;-59
2024/01/07 06:14:05;;;;;;;3.55;2.45;;;;;;;-8.88;81.19;100045.53;5028484;28;20066;-58
2024/01/07 06:16:36;;;;;;;3.88;2.90;;;;;;;-8.88;81.49;100053.13;5039308;28;20462;-60
2024/01/07 06:19:07;;;;;;;2.58;2.10;;;;;;;-8.90;81.74;100059.75;5041474;28;20097;-61
2024/01/07 06:21:39;;;;;;;2.63;2.42;;;;;;;-8.92;81.90;100066.38;5031591;28;20143;-60
2024/01/07 06:24:10;;;;;;;3.42;2.42;;;;;;;-9.83;82.08;99918.56;5041079;28;20045;-60
2024/01/07 06:26:40;;;;;;;2.40;2.15;;;;;;;-9.03;83.16;100067.44;5031253;28;20076;-59
2024/01/07 06:29:11;;;;;;;4.25;2.80;;;;;;;-9.05;83.45;100064.78;5040916;28;20187;-61
2024/01/07 06:31:46;;;;;;;3.47;3.05;;;;;;;-9.09;83.40;100062.84;5030875;28;20045;-59
2024/01/07 06:34:16;;;;;;;3.45;2.53;;;;;;;-9.14;84.02;100064.25;5040763;28;20052;-60
2024/01/07 06:36:49;;;;;;;2.70;2.50;;;;;;;-9.18;83.99;100068.28;5030690;28;20160;-61
2024/01/07 06:39:19;;;;;;;3.25;2.13;;;;;;;-9.21;84.07;100057.97;5038760;28;20056;-60
2024/01/07 06:41:50;;;;;;;3.47;2.70;;;;;;;-9.25;83.91;100066.16;5030976;28;20102;-62
2024/01/07 06:44:20;;;;;;;4.05;2.50;;;;;;;-9.36;83.98;100062.09;5040683;28;20136;-60
2024/01/07 06:46:50;;;;;;;4.43;2.55;;;;;;;-9.35;84.03;100068.94;5030504;28;20457;-62
2024/01/07 06:49:21;;;;;;;3.40;2.60;;;;;;;-9.36;84.29;100063.00;5040612;28;20489;-60
2024/01/07 06:51:53;;;;;;;5.32;2.72;;;;;;;-9.43;84.39;100065.06;5030663;28;20048;-61
2024/01/07 06:54:23;;;;;;;6.07;2.85;;;;;;;-9.44;84.97;100063.31;5040365;28;20114;-62
2024/01/07 06:56:53;;;;;;;5.40;2.80;;;;;;;-9.53;85.04;100057.69;5030773;28;20092;-60
2024/01/07 06:59:24;;;;;;;4.38;2.63;;;;;;;-9.60;85.53;100059.88;5040261;28;20109;-61
2024/01/07 07:01:55;;;;;;;3.47;2.67;;;;;;;-9.64;85.60;100059.59;5030001;28;20101;-60
2024/01/07 07:04:25;;;;;;;3.13;2.55;;;;;;;-9.74;85.73;100053.09;5040349;28;20629;-60
2024/01/07 07:07:00;;;;;;;2.67;2.47;;;;;;;-9.79;85.89;100060.38;5030845;28;20118;-60
2024/01/07 07:09:30;;;;;;;4.22;2.50;;;;;;;-9.85;85.64;100064.22;5040418;28;20210;-60
2024/01/07 07:12:01;;;;;;;4.00;2.80;;;;;;;-9.89;85.73;100062.28;5031148;28;20049;-61
2024/01/07 07:14:31;;;;;;;4.03;2.88;;;;;;;-9.93;85.50;100065.38;5040741;28;20056;-60
2024/01/07 07:17:02;;;;;;;2.85;2.60;;;;;;;-9.99;85.65;100061.69;5030528;28;20074;-61
2024/01/07 07:19:32;;;;;;;4.88;2.80;;;;;;;-9.99;85.53;100066.75;5040208;28;20477;-62
2024/01/07 07:22:06;;;;;;;3.80;2.65;;;;;;;-10.08;85.36;100053.56;5029984;28;20063;-61
2024/01/07 07:24:36;;;;;;;5.72;2.85;;;;;;;-10.03;85.29;100069.88;5035248;28;20130;-63
2024/01/07 07:27:07;;;;;;;2.78;2.58;;;;;;;-10.14;85.41;100070.84;5040377;28;20070;-61
2024/01/07 07:29:37;;;;;;;2.95;2.65;;;;;;;-10.14;85.56;100067.47;5032232;28;20052;-62
2024/01/07 07:32:08;;;;;;;4.05;2.17;;;;;;;-10.18;85.89;100063.88;5039311;28;20113;-62
2024/01/07 07:34:39;;;;;;;4.55;2.55;;;;;;;-10.22;86.23;100074.56;5029424;28;20114;-61
2024/01/07 07:37:11;;;;;;;2.92;2.45;;;;;;;-10.31;86.08;100066.44;5039678;28;20056;-61
2024/01/07 07:39:42;;;;;;;3.00;2.53;;;;;;;-10.36;86.24;100072.84;5029993;28;20139;-61
2024/01/07 07:42:12;;;;;;;5.30;3.20;;;;;;;-10.42;86.86;100069.16;5039771;28;20059;-63
2024/01/07 07:44:42;;;;;;;5.45;3.13;;;;;;;-10.44;86.87;100070.69;5030471;28;20118;-61
2024/01/07 07:47:13;;;;;;;3.58;2.55;;;;;;;-10.57;87.34;100055.56;5040271;28;20080;-62
2024/01/07 07:49:43;;;;;;;3.97;2.92;;;;;;;-10.65;88.00;100049.16;5030454;28;20471;-61
2024/01/07 07:52:15;;;;;;;6.22;3.70;;;;;;;-10.59;88.59;100063.81;5039401;28;20080;-61
2024/01/07 07:54:46;;;;;;;4.35;2.78;;;;;;;-10.77;88.78;100043.31;5029571;28;20049;-60
2024/01/07 07:57:16;;;;;;;4.82;2.60;;;;;;;-10.68;88.75;100056.53;5039140;28;20083;-63
2024/01/07 07:59:47;;;;;;;3.75;2.78;;;;;;;-10.69;88.29;100062.34;5030603;28;20057;-61
2024/01/07 08:02:17;;;;;;;7.97;2.92;;;;;;;-10.74;88.39;100048.53;5038922;28;20677;-64
2024/01/07 08:04:48;;;;;;;2.65;2.45;;;;;;;-10.77;88.42;100063.50;5030412;28;20125;-62
2024/01/07 08:07:20;;;;;;;6.03;3.10;;;;;;;-10.83;88.74;100055.50;5038659;28;20048;-61
2024/01/07 08:09:50;;;;;;;3.38;3.00;;;;;;;-10.89;88.30;100049.28;5029721;28;20139;-62
2024/01/07 08:12:21;;;;;;;3.55;3.00;;;;;;;-10.93;88.33;100062.50;5041704;28;20052;-60
2024/01/07 08:14:51;;;;;;;3.92;2.60;;;;;;;-10.95;88.11;100053.97;5030949;28;20153;-61
2024/01/07 08:17:22;;;;;;;6.32;2.85;;;;;;;-10.95;87.88;100059.00;5043383;28;20483;-59
2024/01/07 08:19:53;;;;;;;3.90;2.70;;;;;;;-10.91;87.68;100060.94;5033759;28;20075;-61
2024/01/07 08:22:26;;;;;;;3.10;2.70;;;;;;;-10.89;87.42;100051.81;5043282;28;20057;-60
2024/01/07 08:24:56;;;;;;;2.67;2.25;;;;;;;-10.86;87.29;100049.53;5033575;28;20059;-59
2024/01/07 08:27:27;;;;;;;5.07;2.35;;;;;;;-10.82;86.90;100059.81;5042441;28;20148;-60
2024/01/07 08:29:57;;;;;;;2.53;2.33;;;;;;;-10.80;87.15;100065.84;5033975;28;20077;-59
2024/01/07 08:32:28;;;;;;;4.18;2.75;;;;;;;-10.78;86.84;100057.59;5043295;28;20048;-60
2024/01/07 08:34:58;;;;;;;3.28;2.53;;;;;;;-10.74;86.52;100063.69;5033160;28;20044;-60
2024/01/07 08:37:30;;;;;;;4.20;2.70;;;;;;;-10.73;86.76;100060.38;5043184;28;20553;-60
2024/01/07 08:40:01;;;;;;;3.80;2.50;;;;;;;-10.69;86.42;100067.38;5033273;28;20048;-61
2024/01/07 08:42:31;;;;;;;3.53;2.90;;;;;;;-10.69;86.44;100062.34;5042856;28;20060;-60
2024/01/07 08:45:04;;;;;;;4.63;2.85;;;;;;;-10.68;86.64;100064.09;5032818;28;20055;-61
2024/01/07 08:47:35;;;;;;;4.70;2.90;;;;;;;-10.67;86.63;100058.25;5042814;28;20045;-60
2024/01/07 08:50:11;;;;;;;3.13;2.50;;;;;;;-10.66;86.53;100067.56;5033196;28;20068;-60
2024/01/07 08:52:46;;;;;;;4.40;3.08;;;;;;;-10.66;87.06;100063.44;5032508;28;20060;-60
2024/01/07 08:55:16;;;;;;;7.45;2.90;;;;;;;-10.63;87.20;100060.22;5042792;28;20063;-60
2024/01/07 08:57:48;;;;;;;3.75;3.00;;;;;;;-10.62;87.08;100069.53;5033099;28;20084;-60
2024/01/07 09:00:19;;;;;;;3.58;2.75;;;;;;;-10.70;87.05;100066.53;5043011;28;20051;-60
2024/01/07 09:02:50;;;;;;;3.38;2.58;;;;;;;-10.64;87.44;100073.59;5032569;28;20114;-60
2024/01/07 09:05:21;;;;;;;4.10;2.85;;;;;;;-10.65;87.76;100064.28;5042596;28;20052;-60
2024/01/07 09:07:53;;;;;;;4.53;2.85;;;;;;;-10.62;88.01;100059.44;5031305;28;20044;-60
2024/01/07 09:10:24;;;;;;;4.18;2.60;;;;;;;-10.47;87.67;100080.63;5041160;28;20068;-62
2024/01/07 09:12:55;;;;;;;3.40;2.80;;;;;;;-10.40;87.65;100081.88;5031554;28;22090;-60
2024/01/07 09:15:25;;;;;;;3.58;2.80;;;;;;;-10.34;87.58;100076.34;5042185;28;20189;-62
2024/01/07 09:17:56;;;;;;;5.13;2.42;;;;;;;-10.27;87.74;100083.50;5031613;28;20068;-61
2024/01/07 09:20:26;;;;;;;2.78;2.47;;;;;;;-10.29;87.49;100077.50;5041869;28;20128;-60
2024/01/07 09:22:58;;;;;;;6.55;2.90;;;;;;;-10.29;87.73;100078.38;5031266;28;20545;-61
2024/01/07 09:25:29;;;;;;;3.08;2.78;;;;;;;-10.28;88.17;100081.78;5042247;28;20056;-60
2024/01/07 09:28:00;;;;;;;6.50;2.75;;;;;;;-10.27;88.28;100076.78;5031826;28;20127;-60
2024/01/07 09:30:31;;;;;;;4.00;2.42;;;;;;;-10.25;88.30;100076.91;5042056;28;20488;-60
2024/01/07 09:33:01;;;;;;;3.83;3.10;;;;;;;-10.22;88.28;100077.97;5032011;28;20171;-60
2024/01/07 09:35:32;;;;;;;5.95;2.45;;;;;;;-10.22;88.28;100088.06;5042173;28;20047;-62
2024/01/07 09:38:04;;;;;;;8.20;3.17;;;;;;;-10.21;88.74;100083.88;5031545;28;20080;-62
2024/01/07 09:40:41;;;;;;;4.15;2.63;;;;;;;-10.32;88.49;100060.50;5031939;28;20189;-62
2024/01/07 09:43:12;;;;;;;5.30;3.35;;;;;;;-10.20;88.74;100086.50;5041734;28;20130;-62
2024/01/07 09:45:47;;;;;;;4.53;3.10;;;;;;;-10.30;88.93;100075.78;5032208;28;20052;-61
2024/01/07 09:48:18;;;;;;;3.10;2.80;;;;;;;-10.17;89.36;100084.97;5041582;28;20136;-60
2024/01/07 09:50:49;;;;;;;4.43;2.70;;;;;;;-10.22;89.68;100092.25;5031511;28;20059;-61
2024/01/07 09:53:27;;;;;;;2.92;2.40;;;;;;;-10.34;89.84;100073.81;5041788;28;20143;-61
2024/01/07 09:56:16;;;;;;;2.67;2.35;;;;;;;-10.30;91.21;100094.31;5029504;28;20059;-60
2024/01/07 09:58:49;;;;;;;5.18;2.53;;;;;;;-10.33;92.35;100095.75;5031186;28;20147;-62
2024/01/07 10:01:38;;;;;;;4.15;2.88;;;;;;;-10.36;93.04;100098.09;5031460;28;20554;-60
2024/01/07 10:04:09;;;;;;;4.32;2.65;;;;;;;-10.40;93.65;100101.22;5040952;28;20063;-61
2024/01/07 10:06:40;;;;;;;4.43;2.90;;;;;;;-10.42;94.26;100094.41;5030863;28;20059;-60
2024/01/07 10:09:14;;;;;;;4.60;3.13;;;;;;;-10.44;94.38;100090.91;5040543;28;20064;-59
2024/01/07 10:11:45;;;;;;;3.60;2.80;;;;;;;-10.42;95.08;100096.94;5030338;28;20044;-61
2024/01/07 10:14:16;;;;;;;4.72;3.63;;;;;;;-10.40;95.60;100106.28;5040550;28;20795;-62
2024/01/07 10:16:46;;;;;;;5.70;3.63;;;;;;;-10.45;95.99;100104.31;5030616;28;20056;-62
2024/01/07 10:19:23;;;;;;;5.45;3.47;;;;;;;-10.46;96.49;100095.00;5040647;28;20577;-62
2024/01/07 10:22:04;;;;;;;6.60;3.67;;;;;;;-10.71;96.75;100058.84;5030459;28;20717;-60
2024/01/07 10:24:41;;;;;;;4.05;2.65;;;;;;;-10.54;97.49;100093.63;5040677;28;20049;-61
2024/01/07 10:27:13;;;;;;;4.03;3.22;;;;;;;-10.48;97.76;100104.13;5030561;28;20520;-61
2024/01/07 10:29:43;;;;;;;6.10;3.30;;;;;;;-10.46;97.70;100107.63;5030370;28;20151;-63
2024/01/07 10:32:13;;;;;;;5.15;3.40;;;;;;;-10.45;97.73;100108.50;5040421;28;20129;-60
2024/01/07 10:34:48;;;;;;;5.03;3.25;;;;;;;-10.42;97.86;100109.56;5029944;28;20121;-62
2024/01/07 10:37:19;;;;;;;7.15;3.53;;;;;;;-10.42;97.87;100109.56;5040489;28;20153;-63
2024/01/07 10:39:53;;;;;;;5.10;3.05;;;;;;;-10.40;97.94;100096.19;5030461;28;20516;-61
2024/01/07 10:42:23;;;;;;;9.90;3.92;;;;;;;-10.40;97.95;100106.28;5040187;28;20049;-60
2024/01/07 10:44:54;;;;;;;5.93;4.03;;;;;;;-10.40;97.96;100108.81;5030730;28;20119;-60
2024/01/07 10:47:28;;;;;;;7.85;3.83;;;;;;;-10.42;98.13;100104.50;5040314;28;20496;-62
2024/01/07 10:50:00;;;;;;;5.30;3.92;;;;;;;-10.46;99.02;100107.63;5031175;28;20048;-61
2024/01/07 10:52:33;;;;;;;7.50;4.07;;;;;;;-10.43;98.92;100097.72;5040728;28;20133;-62
2024/01/07 10:55:11;;;;;;;8.63;4.38;;;;;;;-10.40;98.83;100113.84;5031291;28;20066;-61
2024/01/07 10:57:45;;;;;;;6.10;2.92;;;;;;;-11.27;98.84;99977.81;5030481;28;20051;-62
2024/01/07 11:00:18;;;;;;;5.00;3.45;;;;;;;-10.42;99.01;100104.50;5040804;28;20075;-60
2024/01/07 11:03:04;;;;;;;7.85;3.70;;;;;;;-10.47;98.76;100095.78;5030998;28;20056;-62
2024/01/07 11:05:42;;;;;;;7.22;3.95;;;;;;;-10.34;98.75;100116.75;5040064;28;20045;-62
2024/01/07 11:08:22;;;;;;;5.45;3.38;;;;;;;-10.32;98.47;100126.19;5030025;28;20059;-62
2024/01/07 11:11:00;;;;;;;6.38;3.30;;;;;;;-10.46;97.86;100092.50;5030480;28;20135;-61
2024/01/07 11:13:38;;;;;;;7.00;3.65;;;;;;;-10.62;97.97;100059.44;5039453;28;20129;-62
2024/01/07 11:16:10;;;;;;;5.90;3.47;;;;;;;-10.28;97.87;100118.03;5029139;28;20071;-62
2024/01/07 11:18:43;;;;;;;4.75;3.30;;;;;;;-10.34;97.75;100114.25;5028684;28;20049;-62
2024/01/07 11:21:24;;;;;;;6.97;3.60;;;;;;;-10.28;97.71;100115.50;5039443;28;20133;-62
2024/01/07 11:23:55;;;;;;;4.53;2.90;;;;;;;-10.27;97.70;100108.78;5029892;28;20053;-62
2024/01/07 11:26:32;;;;;;;4.03;3.40;;;;;;;-10.25;97.88;100112.28;5347200;22;20121;-62
2024/01/07 11:29:03;;;;;;;6.35;3.28;;;;;;;-10.25;97.54;100107.22;5028659;28;20174;-59
2024/01/07 11:31:49;;;;;;;8.23;3.40;;;;;;;-10.27;97.96;100103.72;5040544;28;20131;-60
2024/01/07 11:34:41;;;;;;;3.10;2.78;;;;;;;-10.28;97.82;100107.03;5038442;28;20083;-63
2024/01/07 11:37:13;;;;;;;11.60;2.45;;;;;;;-10.27;98.12;100118.88;5025178;28;20060;-63
2024/01/07 11:39:45;;;;;;;4.45;2.70;;;;;;;-10.38;98.67;100084.50;5028122;28;20495;-64
2024/01/07 11:42:17;;;;;;;2.83;2.55;;;;;;;-10.26;98.50;100100.41;5038766;28;20048;-62
2024/01/07 11:44:48;;;;;;;3.65;2.83;;;;;;;-10.27;98.81;100109.63;5027781;28;20052;-63
2024/01/07 11:47:19;;;;;;;4.10;3.17;;;;;;;-10.27;99.01;100103.72;5038345;28;20113;-61
2024/01/07 11:49:50;;;;;;;4.90;2.78;;;;;;;-10.46;98.83;100072.28;5027230;28;20094;-62
2024/01/07 11:52:21;;;;;;;10.00;3.00;;;;;;;-10.34;98.73;100089.84;5038312;28;20048;-62
2024/01/07 11:54:52;;;;;;;3.20;2.75;;;;;;;-10.34;98.79;100086.44;5028102;28;20048;-62
2024/01/07 11:57:24;;;;;;;4.35;2.75;;;;;;;-10.25;98.76;100104.69;5038172;28;20907;-62
2024/01/07 11:59:54;;;;;;;3.38;2.42;;;;;;;-10.27;98.88;100106.25;5029225;28;20060;-63
2024/01/07 12:02:29;;;;;;;2.80;2.30;;;;;;;-10.56;99.12;100054.75;5038103;28;20079;-64
2024/01/07 12:05:00;;;;;;;3.35;2.85;;;;;;;-10.29;98.98;100115.41;5028231;28;20649;-64
2024/01/07 12:07:30;;;;;;;3.72;2.15;;;;;;;-10.27;98.75;100113.81;5038621;28;20167;-61
2024/01/07 12:10:01;;;;;;;3.38;2.70;;;;;;;-10.30;98.75;100106.09;5047336;28;20056;-62
2024/01/07 12:12:33;;;;;;;4.13;2.90;;;;;;;-10.28;98.75;100107.94;5057506;28;20048;-63
2024/01/07 12:15:04;;;;;;;7.15;3.38;;;;;;;-10.27;98.72;100103.72;5032092;28;20060;-61
2024/01/07 12:17:35;;;;;;;6.25;3.00;;;;;;;-10.27;98.57;100109.63;5058469;28;20058;-63
2024/01/07 12:20:08;;;;;;;4.88;2.90;;;;;;;-10.28;98.52;100104.50;5048052;28;20389;-63
2024/01/07 12:22:40;;;;;;;3.65;2.80;;;;;;;-10.27;98.35;100113.81;5046894;28;20566;-62
2024/01/07 12:25:11;;;;;;;3.80;2.15;;;;;;;-10.30;98.08;100108.63;5057732;28;20079;-63
2024/01/07 12:27:44;;;;;;;5.13;2.63;;;;;;;-10.33;98.38;100098.28;5041618;28;20068;-63
2024/01/07 12:30:18;;;;;;;4.68;2.85;;;;;;;-10.36;98.49;100103.16;5048279;28;20049;-64
2024/01/07 12:32:48;;;;;;;4.78;3.25;;;;;;;-10.35;98.58;100099.88;5038067;28;20404;-63
2024/01/07 12:35:19;;;;;;;3.53;2.75;;;;;;;-10.33;98.80;100095.75;5049163;28;20165;-63
2024/01/07 12:37:51;;;;;;;4.85;3.28;;;;;;;-10.33;98.32;100098.28;5036268;28;20044;-62
2024/01/07 12:40:21;;;;;;;5.13;2.80;;;;;;;-10.35;98.53;100109.97;5047855;28;20044;-63
2024/01/07 12:42:54;;;;;;;6.50;3.20;;;;;;;-10.40;98.54;100101.22;5037561;28;20301;-63
2024/01/07 12:45:24;;;;;;;6.82;3.40;;;;;;;-10.44;98.89;100103.53;5048384;28;20141;-61
2024/01/07 12:47:58;;;;;;;5.70;3.80;;;;;;;-10.39;98.81;100108.88;5037745;28;20639;-61
2024/01/07 12:50:30;;;;;;;5.95;3.65;;;;;;;-10.47;98.82;100085.66;5048435;28;20048;-63
2024/01/07 12:53:01;;;;;;;6.95;3.70;;;;;;;-10.39;98.81;100097.91;5038979;28;20151;-61
2024/01/07 12:55:31;;;;;;;6.68;3.40;;;;;;;-10.43;98.90;100082.56;5048806;28;20499;-63
2024/01/07 12:58:03;;;;;;;7.80;3.70;;;;;;;-10.45;99.20;100089.16;5039004;28;20117;-63
2024/01/07 13:00:35;;;;;;;7.57;3.72;;;;;;;-10.48;99.32;100094.03;5051676;28;20059;-61
2024/01/07 13:03:07;;;;;;;7.38;3.55;;;;;;;-10.48;99.68;100088.97;5011472;28;20697;-61
2024/01/07 13:05:37;;;;;;;6.38;4.22;;;;;;;-10.49;99.60;100077.09;5021178;28;20074;-63
2024/01/07 13:08:08;;;;;;;4.10;2.92;;;;;;;-10.45;99.48;100094.22;5039188;28;20056;-63
2024/01/07 13:10:38;;;;;;;6.68;4.00;;;;;;;-10.49;99.22;100082.16;5033353;28;20052;-59
2024/01/07 13:13:12;;;;;;;5.63;3.55;;;;;;;-10.47;99.56;100075.56;5051956;28;20052;-61
2024/01/07 13:15:45;;;;;;;5.57;3.20;;;;;;;-10.49;99.58;100077.09;5040867;28;20443;-60
2024/01/07 13:18:15;;;;;;;3.45;3.00;;;;;;;-10.49;99.55;100076.25;5051299;28;20060;-60
2024/01/07 13:20:46;;;;;;;4.35;2.80;;;;;;;-10.53;99.57;100080.25;5041461;28;20048;-62
2024/01/07 13:23:17;;;;;;;5.25;3.40;;;;;;;-10.57;99.84;100078.28;5051538;28;20055;-62
2024/01/07 13:25:47;;;;;;;5.60;3.20;;;;;;;-10.57;99.84;100088.38;5042057;28;20048;-61
2024/01/07 13:28:19;;;;;;;7.70;3.80;;;;;;;-10.85;99.92;100030.19;5058706;28;20445;-62
2024/01/07 13:30:50;;;;;;;4.82;3.47;;;;;;;-10.57;100.00;100088.38;5050288;28;20267;-62
2024/01/07 13:33:20;;;;;;;6.25;3.60;;;;;;;-10.60;100.00;100073.03;5060538;28;20125;-61
2024/01/07 13:35:51;;;;;;;4.20;3.22;;;;;;;-10.61;100.00;100075.44;5050016;28;20680;-62
2024/01/07 13:38:21;;;;;;;6.63;3.55;;;;;;;-11.15;100.00;99978.63;5060084;28;20495;-60
2024/01/07 13:40:52;;;;;;;5.65;3.42;;;;;;;-10.58;100.00;100070.59;5050215;28;20075;-61
2024/01/07 13:43:29;;;;;;;5.28;3.60;;;;;;;-10.57;100.00;100070.69;5060878;28;20060;-59
2024/01/07 13:45:59;;;;;;;8.00;3.38;;;;;;;-10.60;100.00;100073.03;5050533;28;20044;-63
2024/01/07 13:48:30;;;;;;;10.43;2.90;;;;;;;-10.60;100.00;100078.09;5060734;28;20073;-62
2024/01/07 13:51:02;;;;;;;6.80;3.55;;;;;;;-10.60;100.00;100078.09;5027893;28;20056;-61
2024/01/07 13:53:33;;;;;;;4.68;3.05;;;;;;;-10.59;100.00;100079.81;5039524;28;20048;-63
2024/01/07 13:56:03;;;;;;;4.32;2.92;;;;;;;-10.58;100.00;100076.53;5029383;28;20378;-60
2024/01/07 13:58:35;;;;;;;5.65;3.15;;;;;;;-10.62;100.00;100074.59;5041348;28;20044;-60
2024/01/07 14:01:06;;;;;;;4.35;3.17;;;;;;;-10.81;100.00;100038.81;5030601;28;20048;-60
2024/01/07 14:03:37;;;;;;;5.38;3.15;;;;;;;-10.62;100.00;100079.63;5034730;28;20056;-62
2024/01/07 14:06:07;;;;;;;4.75;2.92;;;;;;;-10.62;100.00;100082.16;5040920;28;20852;-61
2024/01/07 14:08:38;;;;;;;6.35;2.75;;;;;;;-10.60;100.00;100087.31;5031505;28;20076;-62
2024/01/07 14:11:08;;;;;;;6.18;3.40;;;;;;;-10.58;100.00;100085.75;5040673;28;20483;-61
2024/01/07 14:13:40;;;;;;;6.55;3.53;;;;;;;-10.59;100.00;100089.06;5030923;28;20807;-62
2024/01/07 14:16:11;;;;;;;5.60;3.70;;;;;;;-10.60;100.00;100083.13;5041617;28;20070;-62
2024/01/07 14:18:41;;;;;;;6.85;3.60;;;;;;;-10.78;100.00;100056.69;5030763;28;20096;-61
2024/01/07 14:21:12;;;;;;;4.38;3.42;;;;;;;-10.65;100.00;100070.22;5041157;28;20126;-60
2024/01/07 14:23:42;;;;;;;6.65;3.38;;;;;;;-10.64;100.00;100071.09;5031304;28;20087;-62
2024/01/07 14:26:13;;;;;;;5.30;2.90;;;;;;;-10.64;100.00;100076.13;5040659;28;20407;-62
2024/01/07 14:28:45;;;;;;;5.35;3.08;;;;;;;-10.66;100.00;100072.63;5030026;28;20094;-60
2024/01/07 14:31:21;;;;;;;4.50;3.05;;;;;;;-10.64;100.00;100071.09;5040619;28;20052;-60
2024/01/07 14:33:51;;;;;;;3.40;2.75;;;;;;;-10.64;100.00;100066.03;5030598;28;20532;-62
2024/01/07 14:36:23;;;;;;;5.88;3.78;;;;;;;-10.65;100.00;100067.69;5041168;28;20102;-62
2024/01/07 14:38:53;;;;;;;5.82;3.60;;;;;;;-11.03;100.00;100008.78;5031058;28;20052;-60
2024/01/07 14:41:23;;;;;;;4.85;2.92;;;;;;;-10.62;100.00;100074.59;5040729;28;20476;-61
2024/01/07 14:43:55;;;;;;;4.43;2.88;;;;;;;-10.66;100.00;100070.09;5029786;28;20052;-62
2024/01/07 14:46:26;;;;;;;4.30;3.28;;;;;;;-10.67;100.00;100066.72;5040259;28;20055;-61
2024/01/07 14:48:56;;;;;;;9.05;3.67;;;;;;;-10.64;100.00;100071.09;5029995;28;20056;-61
2024/01/07 14:51:27;;;;;;;3.30;2.47;;;;;;;-10.65;100.00;100066.81;5040609;28;20056;-59
2024/01/07 14:53:58;;;;;;;3.63;3.10;;;;;;;-10.65;100.00;100070.22;5030876;28;20049;-62
2024/01/07 14:56:28;;;;;;;4.22;3.15;;;;;;;-10.67;100.00;100065.84;5039928;28;20052;-62
2024/01/07 14:59:00;;;;;;;4.97;3.35;;;;;;;-10.69;100.00;100077.47;5029724;28;20067;-60
2024/01/07 15:01:31;;;;;;;5.10;2.88;;;;;;;-10.65;100.00;100069.34;5040159;28;20060;-63
2024/01/07 15:04:02;;;;;;;4.70;2.63;;;;;;;-10.66;100.00;100067.56;5029523;28;20064;-61
2024/01/07 15:06:40;;;;;;;4.05;3.03;;;;;;;-10.64;100.00;100066.03;5040696;28;20141;-60
2024/01/07 15:09:13;;;;;;;5.82;3.50;;;;;;;-10.64;100.00;100066.03;5022939;28;20051;-63
2024/01/07 15:11:48;;;;;;;4.38;3.47;;;;;;;-10.66;100.00;100067.56;5028633;28;20054;-63
2024/01/07 15:14:20;;;;;;;4.20;3.10;;;;;;;-10.65;100.00;100065.16;5037954;28;20157;-63
2024/01/07 15:16:53;;;;;;;5.20;3.65;;;;;;;-10.62;100.00;100061.97;5027247;28;20053;-61
2024/01/07 15:19:24;;;;;;;2.70;2.50;;;;;;;-10.64;100.00;100060.97;5038127;28;20056;-62
2024/01/07 15:21:55;;;;;;;5.82;2.92;;;;;;;-10.63;100.00;100062.75;5029418;28;20052;-59
2024/01/07 15:24:26;;;;;;;7.25;3.05;;;;;;;-10.61;100.00;100061.16;5042110;28;20048;-61
2024/01/07 15:26:57;;;;;;;6.35;2.80;;;;;;;-10.63;100.00;100057.69;5032843;28;20696;-59
2024/01/07 15:29:29;;;;;;;4.22;2.60;;;;;;;-10.67;100.00;100056.59;5043458;28;20684;-60
2024/01/07 15:31:59;;;;;;;5.72;3.08;;;;;;;-10.69;100.00;100062.34;5011356;28;20073;-59
2024/01/07 15:34:30;;;;;;;4.45;3.10;;;;;;;-10.68;100.00;100061.59;5025106;28;20098;-60
2024/01/07 15:37:00;;;;;;;2.70;2.45;;;;;;;-10.69;100.00;100057.28;5029222;28;20051;-61
2024/01/07 15:39:31;;;;;;;4.70;3.50;;;;;;;-10.67;100.00;100058.25;5043558;28;20048;-60
2024/01/07 15:42:02;;;;;;;3.78;2.70;;;;;;;-10.70;100.00;100043.78;5028221;28;20051;-61
2024/01/07 15:44:35;;;;;;;4.93;3.45;;;;;;;-10.70;100.00;100051.38;5015077;28;20844;-61
2024/01/07 15:47:05;;;;;;;7.82;3.90;;;;;;;-10.71;100.00;100053.78;5015892;28;20516;-61
2024/01/07 15:49:36;;;;;;;9.02;3.60;;;;;;;-10.72;100.00;100047.00;5032913;28;20080;-61
2024/01/07 15:52:06;;;;;;;4.05;3.40;;;;;;;-10.71;100.00;100046.22;5039048;28;20101;-58
2024/01/07 15:54:37;;;;;;;3.22;2.47;;;;;;;-10.70;100.00;100050.50;5032844;28;20048;-59
2024/01/07 15:57:08;;;;;;;7.13;3.08;;;;;;;-10.69;100.00;100047.19;5011866;28;20134;-61
2024/01/07 15:59:42;;;;;;;5.95;3.10;;;;;;;-10.69;100.00;100049.72;4994257;28;20111;-60
2024/01/07 16:02:13;;;;;;;3.67;3.25;;;;;;;-10.70;100.00;100047.97;5015642;28;20090;-61
2024/01/07 16:04:43;;;;;;;4.10;2.88;;;;;;;-10.70;100.00;100050.50;5013530;28;20126;-62
2024/01/07 16:07:14;;;;;;;4.40;3.10;;;;;;;-10.74;100.00;100039.31;5022763;28;20049;-59
2024/01/07 16:09:45;;;;;;;3.67;3.00;;;;;;;-10.74;100.00;100053.59;5013072;28;20071;-60
2024/01/07 16:12:15;;;;;;;6.57;3.53;;;;;;;-10.73;100.00;100052.81;5023410;28;20496;-60
2024/01/07 16:14:47;;;;;;;3.10;2.80;;;;;;;-10.73;100.00;100055.34;5014719;28;20151;-60
2024/01/07 16:17:18;;;;;;;3.20;2.90;;;;;;;-10.74;100.00;100068.75;5024073;28;20041;-59
2024/01/07 16:19:48;;;;;;;4.47;3.20;;;;;;;-10.72;100.00;100063.00;5014474;28;20063;-60
2024/01/07 16:22:19;;;;;;;5.65;2.92;;;;;;;-10.82;100.00;100049.72;5024308;28;20048;-58
2024/01/07 16:24:49;;;;;;;7.40;3.47;;;;;;;-10.72;100.00;100068.06;5014083;28;20106;-60
2024/01/07 16:27:20;;;;;;;5.22;2.80;;;;;;;-10.69;100.00;100077.47;5028527;28;20051;-63
2024/01/07 16:29:52;;;;;;;4.20;2.85;;;;;;;-10.70;100.00;100071.56;5032342;28;20105;-61
2024/01/07 16:32:23;;;;;;;3.58;2.80;;;;;;;-10.72;100.00;100074.78;5040606;28;20521;-60
2024/01/07 16:34:53;;;;;;;4.63;2.35;;;;;;;-10.69;100.00;100092.63;5032912;28;20052;-60
2024/01/07 16:37:24;;;;;;;3.60;2.83;;;;;;;-10.76;100.00;100090.47;5042710;28;20049;-59
2024/01/07 16:39:54;;;;;;;3.95;3.20;;;;;;;-10.74;100.00;100089.81;5032435;28;20052;-61
2024/01/07 16:42:25;;;;;;;4.70;3.15;;;;;;;-10.73;100.00;100085.63;5046956;28;20151;-60
2024/01/07 16:44:57;;;;;;;7.63;3.42;;;;;;;-10.73;100.00;100090.66;5037314;28;20144;-61
2024/01/07 16:47:27;;;;;;;3.58;3.15;;;;;;;-10.73;100.00;100080.56;5046925;28;20127;-61
2024/01/07 16:49:57;;;;;;;7.30;3.10;;;;;;;-10.77;100.00;100088.75;5036834;28;20490;-60
2024/01/07 16:52:31;;;;;;;4.03;3.28;;;;;;;-10.76;100.00;100085.44;5046956;28;20404;-59
2024/01/07 16:55:01;;;;;;;3.15;2.85;;;;;;;-10.77;100.00;100078.66;5036483;28;20056;-59
2024/01/07 16:57:32;;;;;;;4.38;3.22;;;;;;;-10.78;100.00;100085.34;5046999;28;20059;-60